Time;durP1;ratioP1;P1;durP2;ratioP2;P2;SDS_P1;SDS_P2;PMS_P1;PMS_P2;Temp;Humidity;BMP_temperature;BMP_pressure;BME280_temperature;BME280_humidity;BME280_pressure;Samples;Min_cycle;Max_cycle;Signal;HPM_P1;HPM_P2
2021/06/10 00:00:23;;;;;;;3.03;2.20;;;17.60;88.10;;;;;;5024907;28;20017;-87
2021/06/10 00:02:49;;;;;;;3.72;2.00;;;17.50;87.90;;;;;;5025015;28;20195;-86
2021/06/10 00:05:18;;;;;;;3.40;2.13;;;17.50;87.80;;;;;;5032345;28;20068;-87
2021/06/10 00:07:44;;;;;;;4.53;1.88;;;17.40;88.10;;;;;;5025044;28;20053;-87
2021/06/10 00:10:13;;;;;;;5.95;2.70;;;17.40;89.00;;;;;;5028208;28;20036;-87
2021/06/10 00:12:39;;;;;;;3.60;2.00;;;17.30;88.70;;;;;;5028968;28;20087;-87
2021/06/10 00:15:08;;;;;;;4.00;1.88;;;17.30;88.80;;;;;;5029470;28;20380;-87
2021/06/10 00:17:33;;;;;;;5.90;1.90;;;17.30;89.00;;;;;;5025289;28;20025;-88
2021/06/10 00:19:59;;;;;;;3.58;1.88;;;17.20;89.00;;;;;;5029841;28;20411;-87
2021/06/10 00:22:27;;;;;;;2.47;2.05;;;17.20;89.10;;;;;;5026878;28;20031;-86
2021/06/10 00:24:52;;;;;;;4.32;2.10;;;17.10;89.80;;;;;;5026452;28;20123;-88
2021/06/10 00:27:21;;;;;;;3.47;2.00;;;17.10;89.70;;;;;;5030667;28;20029;-87
2021/06/10 00:29:48;;;;;;;3.85;2.03;;;17.00;89.50;;;;;;5028735;28;20034;-86
2021/06/10 00:32:14;;;;;;;3.88;2.35;;;17.00;89.60;;;;;;5031478;28;20107;-86
2021/06/10 00:34:41;;;;;;;3.30;2.10;;;17.00;89.60;;;;;;5028438;28;20056;-87
2021/06/10 00:37:07;;;;;;;3.25;2.00;;;17.00;90.10;;;;;;5028521;28;20029;-87
2021/06/10 00:39:33;;;;;;;4.05;2.25;;;17.00;89.60;;;;;;5028879;28;20042;-86
2021/06/10 00:41:58;;;;;;;6.13;2.40;;;17.00;90.10;;;;;;5030852;28;20086;-87
2021/06/10 00:44:24;;;;;;;4.10;2.30;;;17.00;89.40;;;;;;5026782;28;20021;-87
2021/06/10 00:46:50;;;;;;;3.17;2.20;;;17.00;89.30;;;;;;5022610;28;20510;-87
2021/06/10 00:49:15;;;;;;;3.35;2.15;;;17.00;89.10;;;;;;5027135;28;20033;-87
2021/06/10 00:51:41;;;;;;;4.18;2.20;;;17.00;89.20;;;;;;5028171;28;20021;-87
2021/06/10 00:54:07;;;;;;;3.15;1.95;;;17.00;89.20;;;;;;5027546;28;20286;-87
2021/06/10 00:56:34;;;;;;;4.03;2.30;;;16.90;89.30;;;;;;5030428;28;20132;-87
2021/06/10 00:59:00;;;;;;;3.83;1.88;;;16.90;89.40;;;;;;5029036;28;20219;-88
2021/06/10 01:01:27;;;;;;;3.40;2.10;;;16.90;89.80;;;;;;5028430;28;20052;-87
2021/06/10 01:03:53;;;;;;;7.15;2.25;;;16.90;90.00;;;;;;5028754;28;20380;-87
2021/06/10 01:06:26;;;;;;;3.13;2.03;;;16.90;90.00;;;;;;5029391;28;20029;-87
2021/06/10 01:08:57;;;;;;;8.65;2.30;;;16.90;90.10;;;;;;5012067;28;20048;-87
2021/06/10 01:11:51;;;;;;;2.53;1.92;;;16.80;89.90;;;;;;5028986;28;20055;-87
2021/06/10 01:14:36;;;;;;;5.45;2.30;;;16.80;90.20;;;;;;5003810;28;20042;-86
2021/06/10 01:17:04;;;;;;;2.92;2.50;;;16.80;90.00;;;;;;5007048;28;20034;-87
2021/06/10 01:19:42;;;;;;;3.25;2.40;;;16.80;90.30;;;;;;5005486;28;20037;-88
2021/06/10 01:22:57;;;;;;;2.30;2.08;;;16.80;90.10;;;;;;4991139;28;20030;-86
2021/06/10 01:25:34;;;;;;;7.22;2.42;;;16.80;90.10;;;;;;4872728;29;20141;-87
2021/06/10 01:28:13;;;;;;;5.25;2.67;;;16.80;90.30;;;;;;4871427;29;20075;-87
2021/06/10 01:30:44;;;;;;;5.75;2.35;;;16.70;90.50;;;;;;4871393;29;20037;-86
2021/06/10 01:33:37;;;;;;;3.53;2.30;;;16.70;90.60;;;;;;4869003;29;20472;-86
2021/06/10 01:36:13;;;;;;;6.63;2.67;;;16.70;90.80;;;;;;4788339;29;20050;-86
2021/06/10 01:38:43;;;;;;;5.30;2.25;;;16.70;90.90;;;;;;4801093;29;20111;-88
2021/06/10 01:41:10;;;;;;;3.27;2.40;;;16.70;91.30;;;;;;4800560;29;20054;-88
2021/06/10 01:43:38;;;;;;;6.78;2.63;;;16.60;91.20;;;;;;4801159;29;20846;-87
2021/06/10 01:46:04;;;;;;;3.30;2.83;;;16.60;90.90;;;;;;4800447;29;20057;-87
2021/06/10 01:48:31;;;;;;;4.15;1.83;;;16.60;90.80;;;;;;4800361;29;20409;-87
2021/06/10 01:51:00;;;;;;;5.55;2.33;;;16.60;90.70;;;;;;4802773;29;20051;-86
2021/06/10 01:53:27;;;;;;;5.82;2.75;;;16.50;90.80;;;;;;4804738;29;20143;-85
2021/06/10 01:55:56;;;;;;;5.32;2.40;;;16.60;91.00;;;;;;4805013;29;20066;-87
2021/06/10 01:58:23;;;;;;;4.10;2.60;;;16.60;91.00;;;;;;4804522;29;20108;-87
2021/06/10 02:00:52;;;;;;;2.45;2.00;;;16.50;91.20;;;;;;4804392;29;20034;-87
2021/06/10 02:03:19;;;;;;;5.30;2.05;;;16.50;91.10;;;;;;4916963;29;20100;-87
2021/06/10 02:05:46;;;;;;;3.92;2.15;;;16.50;91.10;;;;;;4926829;29;20036;-87
2021/06/10 02:08:14;;;;;;;3.60;2.10;;;16.40;91.20;;;;;;4934400;29;20047;-86
2021/06/10 02:10:43;;;;;;;3.15;2.03;;;16.40;91.20;;;;;;4918407;29;20442;-86
2021/06/10 02:13:09;;;;;;;3.95;2.35;;;16.40;91.20;;;;;;4994372;28;20435;-86
2021/06/10 02:15:36;;;;;;;2.83;2.45;;;16.30;91.30;;;;;;5032373;28;20092;-86
2021/06/10 02:18:02;;;;;;;3.47;2.55;;;16.30;91.40;;;;;;5029943;28;20029;-86
2021/06/10 02:20:28;;;;;;;3.67;2.10;;;16.20;91.70;;;;;;5033024;28;20053;-85
2021/06/10 02:22:54;;;;;;;5.63;3.13;;;16.20;91.70;;;;;;5032214;28;20499;-86
2021/06/10 02:25:20;;;;;;;2.25;1.77;;;16.20;91.90;;;;;;5031134;28;20037;-87
2021/06/10 02:27:46;;;;;;;6.68;2.53;;;16.10;92.00;;;;;;5029145;28;20045;-87
2021/06/10 02:30:14;;;;;;;3.53;2.28;;;16.10;91.90;;;;;;5029981;28;20026;-86
2021/06/10 02:32:39;;;;;;;4.10;2.25;;;16.10;92.10;;;;;;5032143;28;20364;-86
2021/06/10 02:35:08;;;;;;;5.82;2.60;;;16.00;92.10;;;;;;5029874;28;20025;-85
2021/06/10 02:37:36;;;;;;;3.15;1.95;;;16.00;92.30;;;;;;5031926;28;20049;-86
2021/06/10 02:40:11;;;;;;;4.80;2.30;;;15.90;92.30;;;;;;5032025;28;20056;-85
2021/06/10 02:42:38;;;;;;;4.45;2.60;;;15.90;92.40;;;;;;5029497;28;20399;-86
2021/06/10 02:45:06;;;;;;;4.85;2.63;;;15.80;92.50;;;;;;5028848;28;20047;-86
2021/06/10 02:47:32;;;;;;;6.70;2.80;;;15.80;92.60;;;;;;5024847;28;20060;-86
2021/06/10 02:49:59;;;;;;;3.50;2.85;;;15.70;92.80;;;;;;5030779;28;20380;-85
2021/06/10 02:52:26;;;;;;;5.97;3.20;;;15.70;92.80;;;;;;5028290;28;20039;-85
2021/06/10 02:54:53;;;;;;;4.20;2.63;;;15.70;93.00;;;;;;5030164;28;20088;-86
2021/06/10 02:57:21;;;;;;;4.15;3.10;;;15.60;93.00;;;;;;5030738;28;20036;-86
2021/06/10 02:59:48;;;;;;;5.63;2.85;;;15.60;93.20;;;;;;5030714;28;20473;-84
2021/06/10 03:02:14;;;;;;;5.25;2.67;;;15.60;93.10;;;;;;5030666;28;20079;-86
2021/06/10 03:04:44;;;;;;;3.40;2.65;;;15.60;93.40;;;;;;5029366;28;20021;-87
2021/06/10 03:07:16;;;;;;;3.65;2.95;;;15.50;93.30;;;;;;5025379;28;20041;-87
2021/06/10 03:09:43;;;;;;;4.07;2.97;;;15.50;93.30;;;;;;5029461;28;20398;-86
2021/06/10 03:12:11;;;;;;;4.88;2.58;;;15.50;93.40;;;;;;5018833;28;20534;-87
2021/06/10 03:14:41;;;;;;;3.55;2.63;;;15.50;93.40;;;;;;5031113;28;20154;-87
2021/06/10 03:17:07;;;;;;;7.07;3.05;;;15.40;93.40;;;;;;5031577;28;20030;-86
2021/06/10 03:19:33;;;;;;;4.82;3.13;;;15.40;93.40;;;;;;5030670;28;20064;-85
2021/06/10 03:21:59;;;;;;;6.00;3.38;;;15.40;93.50;;;;;;5029931;28;20045;-87
2021/06/10 03:24:25;;;;;;;11.23;3.45;;;15.40;93.70;;;;;;5029863;28;20026;-86
2021/06/10 03:26:54;;;;;;;7.50;3.58;;;15.40;93.60;;;;;;5028450;28;20468;-86
2021/06/10 03:29:20;;;;;;;5.70;3.42;;;15.40;93.80;;;;;;5035960;28;20033;-87
2021/06/10 03:31:47;;;;;;;7.80;3.53;;;15.40;93.90;;;;;;5023283;28;20605;-87
2021/06/10 03:34:13;;;;;;;9.85;3.83;;;15.50;94.10;;;;;;5025118;28;20447;-86
2021/06/10 03:36:40;;;;;;;4.22;2.92;;;15.50;94.10;;;;;;5026470;28;20088;-87
2021/06/10 03:39:07;;;;;;;5.05;3.35;;;15.60;94.10;;;;;;5030239;28;20088;-87
2021/06/10 03:41:34;;;;;;;6.03;3.22;;;15.70;94.00;;;;;;5031100;28;20044;-85
2021/06/10 03:44:01;;;;;;;6.72;3.90;;;15.90;94.00;;;;;;5020589;28;20029;-86
2021/06/10 03:46:28;;;;;;;4.72;3.45;;;16.20;93.20;;;;;;5026957;28;20048;-86
2021/06/10 03:48:54;;;;;;;5.18;3.22;;;16.30;93.00;;;;;;5024710;28;20037;-86
2021/06/10 03:51:21;;;;;;;6.68;3.92;;;16.50;92.70;;;;;;5020122;28;20487;-86
2021/06/10 03:53:48;;;;;;;5.47;3.55;;;16.50;92.40;;;;;;5026264;28;20040;-87
2021/06/10 03:56:14;;;;;;;4.20;3.58;;;16.70;92.10;;;;;;5028974;28;20100;-87
2021/06/10 03:58:40;;;;;;;5.57;3.80;;;17.30;91.40;;;;;;5027813;28;20033;-86
2021/06/10 04:01:05;;;;;;;4.90;3.58;;;18.20;90.00;;;;;;5026676;28;20037;-86
2021/06/10 04:03:31;;;;;;;5.32;3.60;;;19.10;86.90;;;;;;5020426;28;20060;-87
2021/06/10 04:05:57;;;;;;;5.63;3.72;;;19.80;83.50;;;;;;5031297;28;20025;-87
2021/06/10 04:08:23;;;;;;;3.70;3.10;;;20.20;81.70;;;;;;5030124;28;20029;-88
2021/06/10 04:10:49;;;;;;;16.48;3.75;;;20.80;78.90;;;;;;5029459;28;20033;-88
2021/06/10 04:13:15;;;;;;;5.25;3.72;;;21.20;78.00;;;;;;5026141;28;20040;-86
2021/06/10 04:15:41;;;;;;;7.20;3.90;;;21.60;76.20;;;;;;5028599;28;20109;-87
2021/06/10 04:18:06;;;;;;;6.68;3.35;;;21.80;75.30;;;;;;5017546;28;20048;-86
2021/06/10 04:20:32;;;;;;;5.10;3.83;;;22.10;74.50;;;;;;5030485;28;20105;-86
2021/06/10 04:22:58;;;;;;;7.97;4.00;;;22.20;73.30;;;;;;5026045;28;20131;-87
2021/06/10 04:25:24;;;;;;;5.07;3.33;;;22.60;72.60;;;;;;5025893;28;20032;-86
2021/06/10 04:27:49;;;;;;;3.85;2.97;;;22.90;71.70;;;;;;5020689;28;20116;-87
2021/06/10 04:30:17;;;;;;;6.18;3.50;;;23.10;70.90;;;;;;5014173;28;20129;-86
2021/06/10 04:32:46;;;;;;;5.10;3.50;;;23.10;69.50;;;;;;5029639;28;20116;-86
2021/06/10 04:35:13;;;;;;;4.75;3.30;;;23.20;69.50;;;;;;5029619;28;20026;-87
2021/06/10 04:37:38;;;;;;;4.60;3.25;;;23.30;69.70;;;;;;5025901;28;20045;-85
2021/06/10 04:40:05;;;;;;;7.10;3.00;;;23.40;69.00;;;;;;5028599;28;20485;-86
2021/06/10 04:42:31;;;;;;;4.60;2.85;;;23.30;69.20;;;;;;5028298;28;20022;-85
2021/06/10 04:44:57;;;;;;;5.85;3.58;;;23.40;68.70;;;;;;5026312;28;20068;-86
2021/06/10 04:47:22;;;;;;;10.10;3.55;;;23.10;68.90;;;;;;5031309;28;20026;-86
2021/06/10 04:49:48;;;;;;;4.85;3.20;;;23.10;68.90;;;;;;5027773;28;20039;-87
2021/06/10 04:52:14;;;;;;;4.05;3.28;;;23.10;68.80;;;;;;5028085;28;20022;-87
2021/06/10 04:54:40;;;;;;;9.90;3.78;;;23.00;69.50;;;;;;5026760;28;20079;-85
2021/06/10 04:57:06;;;;;;;8.45;3.65;;;22.40;72.00;;;;;;5027185;28;20105;-86
2021/06/10 04:59:32;;;;;;;6.05;3.38;;;21.60;74.20;;;;;;5029218;28;20444;-86
2021/06/10 05:01:58;;;;;;;5.25;3.40;;;21.00;76.80;;;;;;5025081;28;20086;-86
2021/06/10 05:04:24;;;;;;;6.35;3.30;;;20.60;77.70;;;;;;5029549;28;20030;-85
2021/06/10 05:06:51;;;;;;;5.40;3.33;;;20.30;79.40;;;;;;5028877;28;20033;-84
2021/06/10 05:09:18;;;;;;;3.70;3.28;;;20.00;80.80;;;;;;5026939;28;20025;-86
2021/06/10 05:11:43;;;;;;;6.68;3.65;;;19.70;80.40;;;;;;5029844;28;20026;-86
2021/06/10 05:14:09;;;;;;;4.10;2.97;;;19.50;82.50;;;;;;5029851;28;20026;-86
2021/06/10 05:16:35;;;;;;;6.85;3.85;;;19.30;83.00;;;;;;5027618;28;20030;-87
2021/06/10 05:19:01;;;;;;;6.07;3.00;;;19.10;84.10;;;;;;5022253;28;20491;-86
2021/06/10 05:21:26;;;;;;;10.20;3.72;;;19.00;84.70;;;;;;5023261;28;20035;-86
2021/06/10 05:23:52;;;;;;;6.35;3.00;;;19.00;84.60;;;;;;5020214;28;20118;-86
2021/06/10 05:26:18;;;;;;;11.25;3.60;;;19.00;84.20;;;;;;5029378;28;20039;-87
2021/06/10 05:28:43;;;;;;;6.07;3.75;;;19.00;85.00;;;;;;5028379;28;20045;-87
2021/06/10 05:31:09;;;;;;;9.65;3.22;;;19.10;83.90;;;;;;5026060;28;20101;-87
2021/06/10 05:33:36;;;;;;;7.10;3.22;;;19.10;84.60;;;;;;5027783;28;20033;-88
2021/06/10 05:36:03;;;;;;;6.30;3.05;;;19.00;83.70;;;;;;5027604;28;20029;-87
2021/06/10 05:38:28;;;;;;;11.55;5.40;;;19.00;83.80;;;;;;5029834;28;20056;-86
2021/06/10 05:40:54;;;;;;;4.80;3.42;;;18.90;83.80;;;;;;5026797;28;20022;-88
2021/06/10 05:43:22;;;;;;;5.00;3.40;;;18.90;83.70;;;;;;5028463;28;20033;-87
2021/06/10 05:45:48;;;;;;;63.83;7.10;;;19.00;84.50;;;;;;5027688;28;20100;-87
2021/06/10 05:48:14;;;;;;;4.82;3.03;;;19.10;83.90;;;;;;5027211;28;20113;-87
2021/06/10 05:50:40;;;;;;;6.10;3.30;;;19.10;83.50;;;;;;5026340;28;20033;-87
2021/06/10 05:53:05;;;;;;;8.05;3.15;;;19.10;81.50;;;;;;5030187;28;20075;-87
2021/06/10 05:55:31;;;;;;;13.48;3.00;;;19.10;83.30;;;;;;5019725;28;20059;-87
2021/06/10 05:57:57;;;;;;;3.28;2.70;;;19.20;83.40;;;;;;5021232;28;20021;-87
2021/06/10 06:00:24;;;;;;;14.40;3.22;;;19.30;81.30;;;;;;5028364;28;20384;-87
2021/06/10 06:02:50;;;;;;;4.00;2.63;;;19.20;81.80;;;;;;5027484;28;20116;-88
2021/06/10 06:05:15;;;;;;;4.18;2.58;;;19.30;82.40;;;;;;5029080;28;20136;-87
2021/06/10 06:07:41;;;;;;;8.85;3.20;;;19.40;82.80;;;;;;5028087;28;20087;-86
2021/06/10 06:10:08;;;;;;;10.65;2.92;;;19.50;83.00;;;;;;5046044;28;20025;-85
2021/06/10 06:12:36;;;;;;;4.10;2.75;;;19.60;81.90;;;;;;5027022;28;20029;-86
2021/06/10 06:15:01;;;;;;;7.05;3.50;;;19.70;81.00;;;;;;5027239;28;20070;-87
2021/06/10 06:17:27;;;;;;;3.85;2.90;;;19.90;80.70;;;;;;5029038;28;20025;-87
2021/06/10 06:19:56;;;;;;;4.63;2.85;;;19.90;80.70;;;;;;5028374;28;20103;-85
2021/06/10 06:22:22;;;;;;;7.53;2.75;;;19.80;80.00;;;;;;5027227;28;20022;-86
2021/06/10 06:24:48;;;;;;;5.55;3.28;;;19.90;82.00;;;;;;5027266;28;20051;-85
2021/06/10 06:27:14;;;;;;;5.13;2.90;;;20.00;81.40;;;;;;5027401;28;20391;-87
2021/06/10 06:29:40;;;;;;;6.57;2.90;;;20.10;81.10;;;;;;5028976;28;20029;-87
2021/06/10 06:32:06;;;;;;;33.13;4.20;;;20.20;80.60;;;;;;5029242;28;20483;-87
2021/06/10 06:34:32;;;;;;;7.22;2.33;;;20.30;80.10;;;;;;5027467;28;20430;-87
2021/06/10 06:36:57;;;;;;;5.38;2.45;;;20.30;78.70;;;;;;5029529;28;20029;-87
2021/06/10 06:39:23;;;;;;;5.95;2.55;;;20.30;80.00;;;;;;5030732;28;20045;-86
2021/06/10 06:41:49;;;;;;;4.65;2.92;;;20.40;79.50;;;;;;5015116;28;20498;-88
2021/06/10 06:44:14;;;;;;;6.03;2.55;;;20.50;79.80;;;;;;5033106;28;20388;-87
2021/06/10 06:46:40;;;;;;;5.13;2.65;;;20.50;79.20;;;;;;5032135;28;20108;-88
2021/06/10 06:49:06;;;;;;;5.90;2.35;;;20.50;78.60;;;;;;5030604;28;20367;-87
2021/06/10 06:51:32;;;;;;;3.53;2.20;;;20.50;78.70;;;;;;5030756;28;20411;-88
2021/06/10 06:53:58;;;;;;;3.63;2.30;;;20.60;78.40;;;;;;5030716;28;20038;-87
2021/06/10 06:56:24;;;;;;;4.93;2.20;;;20.60;79.30;;;;;;5027037;28;20113;-88
2021/06/10 06:58:51;;;;;;;3.75;2.35;;;20.70;77.50;;;;;;5018634;28;20060;-88
2021/06/10 07:01:17;;;;;;;2.70;2.20;;;20.60;76.70;;;;;;5024813;28;20037;-86
2021/06/10 07:03:43;;;;;;;6.38;2.70;;;20.70;77.40;;;;;;5028520;28;20063;-86
2021/06/10 07:06:09;;;;;;;8.30;2.60;;;20.80;77.70;;;;;;5026310;28;20415;-88
2021/06/10 07:08:35;;;;;;;4.28;2.03;;;20.80;76.10;;;;;;5030405;28;20034;-89
2021/06/10 07:11:01;;;;;;;5.25;2.67;;;20.80;77.40;;;;;;5024082;28;20040;-86
2021/06/10 07:13:27;;;;;;;4.13;2.45;;;20.80;76.80;;;;;;5025453;28;20402;-88
2021/06/10 07:15:53;;;;;;;4.15;2.22;;;20.90;77.30;;;;;;5025420;28;20021;-86
2021/06/10 07:18:19;;;;;;;2.72;2.45;;;21.00;76.10;;;;;;5027752;28;20022;-88
2021/06/10 07:20:44;;;;;;;4.63;2.50;;;21.10;74.80;;;;;;5030596;28;20116;-88
2021/06/10 07:23:10;;;;;;;5.38;2.17;;;21.10;75.20;;;;;;5031175;28;20152;-89
2021/06/10 07:25:36;;;;;;;2.83;2.00;;;21.10;75.40;;;;;;5029256;28;20060;-88
2021/06/10 07:28:03;;;;;;;6.07;2.35;;;21.20;75.40;;;;;;5028603;28;20033;-87
2021/06/10 07:30:29;;;;;;;5.75;2.28;;;21.20;74.60;;;;;;5027849;28;20029;-88
2021/06/10 07:32:55;;;;;;;7.25;2.30;;;21.30;74.90;;;;;;5028619;28;20373;-88
2021/06/10 07:35:21;;;;;;;6.40;2.55;;;21.40;74.50;;;;;;5024580;28;20528;-86
2021/06/10 07:37:52;;;;;;;5.63;2.45;;;21.50;75.10;;;;;;5043361;28;20021;-88
2021/06/10 07:40:19;;;;;;;5.10;2.58;;;21.60;74.50;;;;;;5026516;28;20072;-86
2021/06/10 07:42:45;;;;;;;7.00;2.30;;;21.70;73.60;;;;;;5026479;28;20104;-87
2021/06/10 07:45:12;;;;;;;5.65;2.22;;;21.80;73.20;;;;;;4997077;28;20033;-87
2021/06/10 07:47:37;;;;;;;3.22;2.22;;;21.80;73.30;;;;;;4990042;28;20026;-87
2021/06/10 07:50:05;;;;;;;6.93;2.50;;;21.80;74.70;;;;;;5025733;28;20033;-88
2021/06/10 07:52:31;;;;;;;4.97;2.45;;;21.90;74.80;;;;;;5029581;28;20861;-88
2021/06/10 07:54:56;;;;;;;3.55;2.10;;;21.90;73.60;;;;;;5027457;28;20504;-86
2021/06/10 07:57:22;;;;;;;4.38;2.53;;;21.90;71.90;;;;;;5029810;28;20080;-87
2021/06/10 07:59:48;;;;;;;6.57;2.35;;;22.00;72.80;;;;;;5024156;28;20033;-87
2021/06/10 08:02:14;;;;;;;3.88;2.47;;;21.90;71.90;;;;;;5027962;28;20030;-88
2021/06/10 08:04:39;;;;;;;9.18;2.65;;;21.90;71.90;;;;;;5026280;28;20061;-89
2021/06/10 08:07:05;;;;;;;6.72;2.10;;;21.90;71.70;;;;;;5026199;28;20033;-87
2021/06/10 08:09:32;;;;;;;4.10;2.17;;;21.80;73.10;;;;;;5020529;28;20036;-88
2021/06/10 08:11:59;;;;;;;2.97;2.35;;;21.90;72.00;;;;;;5026315;28;20021;-87
2021/06/10 08:14:25;;;;;;;2.45;1.70;;;22.00;71.60;;;;;;5025684;28;20037;-87
2021/06/10 08:16:51;;;;;;;3.92;1.80;;;22.10;70.60;;;;;;5021046;28;20018;-85
2021/06/10 08:19:17;;;;;;;4.22;1.83;;;22.10;71.80;;;;;;5026124;28;20083;-88
2021/06/10 08:21:43;;;;;;;8.48;2.30;;;22.20;70.50;;;;;;5025836;28;20117;-87
2021/06/10 08:24:09;;;;;;;3.72;2.08;;;22.30;71.60;;;;;;5024483;28;20018;-88
2021/06/10 08:26:35;;;;;;;5.55;2.05;;;22.30;70.20;;;;;;5022751;28;20045;-87
2021/06/10 08:29:00;;;;;;;4.70;1.50;;;22.40;70.00;;;;;;5028779;28;20052;-88
2021/06/10 08:31:27;;;;;;;3.35;1.98;;;22.40;68.00;;;;;;5026415;28;20030;-86
2021/06/10 08:33:52;;;;;;;3.50;1.92;;;22.50;68.40;;;;;;5023286;28;20034;-88
2021/06/10 08:36:19;;;;;;;3.08;1.70;;;22.60;64.70;;;;;;5021685;28;20022;-86
2021/06/10 08:38:46;;;;;;;3.95;1.98;;;22.70;66.30;;;;;;5024370;28;20128;-88
2021/06/10 08:41:12;;;;;;;3.35;2.00;;;22.70;67.50;;;;;;5028364;28;20061;-87
2021/06/10 08:43:38;;;;;;;6.63;2.05;;;22.70;66.30;;;;;;5022033;28;20511;-86
2021/06/10 08:46:07;;;;;;;4.45;1.80;;;22.60;67.00;;;;;;5024969;28;20096;-87
2021/06/10 08:48:38;;;;;;;5.07;2.08;;;22.70;68.10;;;;;;5009676;28;20055;-87
2021/06/10 08:51:05;;;;;;;4.70;1.83;;;22.70;66.10;;;;;;5027195;28;20025;-87
2021/06/10 08:53:31;;;;;;;56.38;5.50;;;22.70;66.10;;;;;;5028560;28;20487;-88
2021/06/10 08:55:57;;;;;;;10.38;2.67;;;22.80;66.60;;;;;;5024094;28;20120;-87
2021/06/10 08:58:24;;;;;;;2.92;1.48;;;22.90;64.50;;;;;;5032215;28;20108;-87
2021/06/10 09:00:52;;;;;;;4.20;1.27;;;23.00;63.50;;;;;;5028716;28;20494;-86
2021/06/10 09:03:23;;;;;;;4.80;1.70;;;23.00;61.20;;;;;;5028468;28;20052;-87
2021/06/10 09:06:07;;;;;;;4.05;1.40;;;23.10;63.80;;;;;;5028094;28;20554;-86
2021/06/10 09:08:34;;;;;;;2.47;1.58;;;23.10;65.10;;;;;;5026080;28;20073;-87
2021/06/10 09:11:07;;;;;;;3.10;1.23;;;23.20;64.30;;;;;;5033541;28;20243;-86
2021/06/10 09:13:57;;;;;;;8.02;1.30;;;23.30;64.00;;;;;;5025859;28;20075;-86
2021/06/10 09:16:24;;;;;;;6.30;1.65;;;23.50;62.80;;;;;;5020843;28;20491;-85
2021/06/10 09:19:03;;;;;;;2.13;0.90;;;23.50;63.60;;;;;;5026046;28;20029;-88
2021/06/10 09:21:33;;;;;;;3.63;1.13;;;23.70;61.50;;;;;;5031227;28;20026;-86
2021/06/10 09:24:22;;;;;;;3.08;1.42;;;23.80;60.90;;;;;;5027923;28;20033;-88
2021/06/10 09:27:02;;;;;;;2.55;0.98;;;23.90;61.10;;;;;;5027081;28;20026;-85
2021/06/10 09:29:41;;;;;;;3.35;1.23;;;24.00;58.60;;;;;;5023798;28;20068;-87
2021/06/10 09:32:12;;;;;;;5.25;1.73;;;24.00;60.00;;;;;;5028568;28;20037;-88
2021/06/10 09:34:57;;;;;;;43.22;4.00;;;23.90;60.20;;;;;;5029582;28;20025;-87
2021/06/10 09:37:28;;;;;;;5.15;1.48;;;23.70;60.80;;;;;;5043869;28;20021;-87
2021/06/10 09:39:54;;;;;;;5.95;2.17;;;23.60;63.40;;;;;;5026000;28;20025;-87
2021/06/10 09:42:33;;;;;;;14.48;2.55;;;23.70;63.80;;;;;;5020694;28;20092;-87
2021/06/10 09:45:01;;;;;;;4.28;1.60;;;23.90;63.10;;;;;;5028074;28;20022;-87
2021/06/10 09:47:34;;;;;;;6.65;1.83;;;24.10;61.80;;;;;;5023934;28;20029;-88
2021/06/10 09:50:15;;;;;;;5.60;1.83;;;24.00;60.20;;;;;;5031284;28;20033;-87
2021/06/10 09:52:50;;;;;;;3.08;1.83;;;23.90;61.10;;;;;;5024855;28;20056;-88
2021/06/10 09:55:35;;;;;;;7.72;2.10;;;24.10;62.80;;;;;;5023501;28;20426;-88
2021/06/10 09:58:13;;;;;;;9.00;1.70;;;24.00;61.90;;;;;;5027894;28;20029;-87
2021/06/10 10:00:45;;;;;;;4.45;1.50;;;23.90;62.00;;;;;;5025779;28;20486;-88
2021/06/10 10:03:24;;;;;;;5.45;1.85;;;23.90;60.20;;;;;;5010375;28;20124;-86
2021/06/10 10:05:54;;;;;;;4.32;1.17;;;24.00;59.40;;;;;;5029395;28;20036;-87
2021/06/10 10:08:20;;;;;;;2.60;1.13;;;24.10;58.00;;;;;;5036772;28;20041;-88
2021/06/10 10:10:46;;;;;;;2.78;1.40;;;24.20;57.60;;;;;;5027145;28;20034;-88
2021/06/10 10:13:17;;;;;;;29.00;2.67;;;24.30;59.10;;;;;;5030191;28;20415;-89
2021/06/10 10:15:44;;;;;;;4.10;1.40;;;24.30;59.90;;;;;;5030421;28;20026;-86
2021/06/10 10:18:10;;;;;;;6.05;1.50;;;24.50;59.90;;;;;;5043265;28;20021;-88
2021/06/10 10:20:38;;;;;;;2.25;1.60;;;24.60;58.60;;;;;;5032042;28;21565;-88
2021/06/10 10:23:05;;;;;;;2.10;1.25;;;24.70;59.40;;;;;;5036867;28;20021;-86
2021/06/10 10:25:31;;;;;;;1.67;1.00;;;24.70;58.20;;;;;;5032537;28;20029;-87
2021/06/10 10:27:59;;;;;;;5.28;1.30;;;24.50;58.80;;;;;;5030653;28;20036;-86
2021/06/10 10:30:25;;;;;;;5.13;1.42;;;24.20;58.40;;;;;;5029219;28;20483;-86
2021/06/10 10:32:51;;;;;;;3.78;1.20;;;24.10;57.10;;;;;;5037355;28;20101;-87
2021/06/10 10:35:27;;;;;;;2.35;1.10;;;24.00;58.60;;;;;;5032064;28;20609;-86
2021/06/10 10:37:55;;;;;;;3.40;1.27;;;24.00;58.70;;;;;;5038334;28;20411;-87
2021/06/10 10:40:28;;;;;;;8.82;1.65;;;24.10;58.90;;;;;;5031916;28;20025;-87
2021/06/10 10:42:55;;;;;;;2.10;1.35;;;24.30;60.00;;;;;;5030662;28;20018;-87
2021/06/10 10:45:24;;;;;;;2.30;1.00;;;24.50;56.80;;;;;;5030113;28;20044;-87
2021/06/10 10:48:00;;;;;;;15.45;1.52;;;24.60;55.70;;;;;;5031882;28;20044;-88
2021/06/10 10:50:40;;;;;;;4.18;1.15;;;24.70;58.90;;;;;;5031347;28;20029;-87
2021/06/10 10:53:08;;;;;;;;;;;24.50;53.80;;;;;;5031623;28;20207;-88
2021/06/10 10:55:34;;;;;;;14.55;1.63;;;24.20;55.70;;;;;;5030000;28;20313;-88
2021/06/10 10:58:05;;;;;;;3.75;1.25;;;24.00;56.30;;;;;;5031525;28;20383;-87
2021/06/10 11:00:45;;;;;;;2.97;1.20;;;23.90;56.20;;;;;;5030218;28;20033;-88
2021/06/10 11:03:26;;;;;;;;;;;23.70;57.30;;;;;;5023636;28;20080;-87
2021/06/10 11:05:53;;;;;;;3.60;1.30;;;23.50;57.70;;;;;;5028493;28;19999;-87
2021/06/10 11:08:20;;;;;;;2.80;1.25;;;23.40;58.60;;;;;;5045649;28;20439;-87
2021/06/10 11:10:56;;;;;;;2.25;1.10;;;23.40;59.70;;;;;;5010099;28;20431;-88
2021/06/10 11:13:23;;;;;;;1.80;0.90;;;23.30;57.90;;;;;;5035101;28;20111;-87
2021/06/10 11:16:04;;;;;;;1.90;0.75;;;23.40;58.60;;;;;;5030650;28;20025;-87
2021/06/10 11:18:43;;;;;;;5.93;1.55;;;23.70;57.70;;;;;;5024021;28;20063;-88
2021/06/10 11:21:10;;;;;;;5.10;1.38;;;23.90;56.30;;;;;;5032813;28;20550;-86
2021/06/10 11:23:36;;;;;;;2.05;1.08;;;24.20;58.60;;;;;;5026793;28;20495;-88
2021/06/10 11:26:04;;;;;;;2.53;1.30;;;24.40;57.10;;;;;;5028452;28;20037;-87
2021/06/10 11:28:36;;;;;;;2.65;0.93;;;24.50;57.50;;;;;;5024209;28;20030;-87
2021/06/10 11:31:17;;;;;;;4.15;1.00;;;24.70;57.50;;;;;;5029683;28;20040;-85
2021/06/10 11:33:43;;;;;;;2.55;1.17;;;24.80;53.60;;;;;;5026736;28;20040;-86
2021/06/10 11:36:11;;;;;;;2.47;0.85;;;25.00;56.30;;;;;;5030302;28;20029;-86
2021/06/10 11:38:40;;;;;;;3.15;0.73;;;24.90;56.40;;;;;;5029079;28;20065;-86
2021/06/10 11:41:13;;;;;;;7.03;1.05;;;24.90;56.20;;;;;;5029422;28;20562;-86
2021/06/10 11:43:42;;;;;;;1.58;0.80;;;24.70;54.10;;;;;;5032316;28;20021;-88
2021/06/10 11:46:10;;;;;;;2.22;0.70;;;24.90;55.60;;;;;;5028388;28;20032;-88
2021/06/10 11:48:46;;;;;;;3.67;0.88;;;24.90;54.70;;;;;;5025916;28;20060;-87
2021/06/10 11:51:31;;;;;;;29.13;2.40;;;24.90;54.70;;;;;;5028590;28;20043;-86
2021/06/10 11:54:11;;;;;;;3.28;0.82;;;24.70;55.80;;;;;;5025264;28;20029;-87
2021/06/10 11:56:38;;;;;;;2.35;1.08;;;24.50;56.00;;;;;;5029748;28;20104;-86
2021/06/10 11:59:19;;;;;;;2.67;0.82;;;24.40;56.70;;;;;;5029720;28;20033;-86
2021/06/10 12:02:00;;;;;;;4.15;1.10;;;24.30;56.80;;;;;;5025062;28;20025;-86
2021/06/10 12:04:31;;;;;;;3.63;0.98;;;24.50;56.00;;;;;;5023504;28;20055;-86
2021/06/10 12:07:05;;;;;;;;;;;24.50;54.80;;;;;;5032565;28;20541;-89
2021/06/10 12:09:31;;;;;;;1.83;0.80;;;24.60;54.60;;;;;;5021413;28;20231;-87
2021/06/10 12:11:57;;;;;;;3.65;0.63;;;24.70;57.60;;;;;;5029161;28;20416;-88
2021/06/10 12:14:37;;;;;;;1.67;0.70;;;24.90;54.20;;;;;;5028048;28;20475;-89
2021/06/10 12:17:03;;;;;;;4.80;0.80;;;25.00;54.10;;;;;;5027141;28;20033;-87
2021/06/10 12:19:29;;;;;;;3.83;0.70;;;24.90;54.30;;;;;;5032883;28;20103;-88
2021/06/10 12:22:02;;;;;;;5.22;0.88;;;25.00;56.20;;;;;;5031829;28;20021;-88
2021/06/10 12:24:48;;;;;;;5.15;1.42;;;24.80;53.10;;;;;;5026587;28;20040;-87
2021/06/10 12:27:21;;;;;;;3.33;1.25;;;24.60;54.40;;;;;;5008633;28;20049;-86
2021/06/10 12:29:50;;;;;;;4.05;0.88;;;24.60;55.30;;;;;;5030000;28;20056;-88
2021/06/10 12:32:31;;;;;;;5.93;0.70;;;24.40;54.40;;;;;;5027436;28;20124;-87
2021/06/10 12:34:58;;;;;;;1.80;0.70;;;24.40;54.70;;;;;;5026208;28;20029;-87
2021/06/10 12:37:24;;;;;;;3.08;0.70;;;24.40;54.20;;;;;;5026224;28;20141;-87
2021/06/10 12:39:50;;;;;;;3.60;0.63;;;24.50;54.00;;;;;;5028682;28;20125;-86
2021/06/10 12:42:16;;;;;;;2.72;1.10;;;24.40;54.60;;;;;;5026993;28;20032;-87
2021/06/10 12:44:42;;;;;;;5.88;1.30;;;24.50;54.00;;;;;;5025945;28;20413;-86
2021/06/10 12:47:07;;;;;;;3.65;1.02;;;24.70;55.10;;;;;;5022024;28;20028;-87
2021/06/10 12:49:54;;;;;;;3.10;1.05;;;24.80;54.90;;;;;;5023669;28;20031;-87
2021/06/10 12:52:25;;;;;;;2.83;0.70;;;24.80;53.90;;;;;;5025918;28;20100;-88
2021/06/10 12:54:58;;;;;;;2.97;1.02;;;24.90;53.30;;;;;;5019210;28;20029;-84